Time;durP1;ratioP1;P1;durP2;ratioP2;P2;SDS_P1;SDS_P2;PMS_P1;PMS_P2;Temp;Humidity;BMP_temperature;BMP_pressure;BME280_temperature;BME280_humidity;BME280_pressure;Samples;Min_cycle;Max_cycle;Signal;HPM_P1;HPM_P2
2020/12/05 00:01:18;;;;;;;29.73;15.00;;;;;;;-0.45;92.90;98928.38;4928761;29;20195;-72
2020/12/05 00:03:44;;;;;;;26.20;14.97;;;;;;;-0.42;92.98;98926.66;4929375;29;20196;-73
2020/12/05 00:06:10;;;;;;;30.60;16.10;;;;;;;-0.41;92.71;98924.94;4933018;28;20902;-74
2020/12/05 00:08:36;;;;;;;29.90;15.97;;;;;;;-0.37;92.79;98924.03;4924632;29;20199;-73
2020/12/05 00:11:03;;;;;;;29.40;15.03;;;;;;;-0.34;92.52;98925.72;4926952;28;20450;-73
2020/12/05 00:13:29;;;;;;;29.93;14.43;;;;;;;-0.32;92.50;98936.78;4925803;29;20227;-73
2020/12/05 00:15:54;;;;;;;35.43;15.50;;;;;;;-0.34;92.47;98929.13;4925596;29;20579;-73
2020/12/05 00:18:21;;;;;;;28.97;14.47;;;;;;;-0.40;92.58;98932.59;4930878;29;20285;-73
2020/12/05 00:20:47;;;;;;;35.17;16.13;;;;;;;-0.43;92.66;98936.91;4932856;29;20210;-73
2020/12/05 00:23:13;;;;;;;32.53;16.10;;;;;;;-0.44;92.79;98940.31;4933586;28;20222;-73
2020/12/05 00:25:39;;;;;;;30.00;14.77;;;;;;;-0.47;92.77;98942.91;4924213;28;20210;-73
2020/12/05 00:28:06;;;;;;;30.67;16.10;;;;;;;-0.52;92.78;98950.63;4929055;29;20490;-72
2020/12/05 00:30:33;;;;;;;29.57;15.40;;;;;;;-0.58;92.85;98943.84;4927987;28;20492;-74
2020/12/05 00:33:00;;;;;;;29.13;15.37;;;;;;;-0.63;93.11;98930.22;4934020;29;20309;-73
2020/12/05 00:35:26;;;;;;;28.97;15.83;;;;;;;-0.67;93.38;98938.81;4923813;29;20211;-73
2020/12/05 00:37:52;;;;;;;32.10;16.17;;;;;;;-0.73;93.28;98943.13;4927373;29;20214;-73
2020/12/05 00:40:18;;;;;;;33.97;17.03;;;;;;;-0.77;93.58;98940.56;4928295;29;20199;-73
2020/12/05 00:42:44;;;;;;;27.47;16.10;;;;;;;-0.79;93.77;98938.91;4922158;29;20219;-73
2020/12/05 00:45:10;;;;;;;26.07;14.97;;;;;;;-0.82;93.83;98931.22;4930580;28;20282;-73
2020/12/05 00:47:36;;;;;;;25.73;14.60;;;;;;;-0.75;93.77;98930.31;4924747;29;20203;-73
2020/12/05 00:50:03;;;;;;;26.73;14.13;;;;;;;-0.68;93.42;98921.72;4923627;28;20233;-75
2020/12/05 00:52:30;;;;;;;28.37;13.97;;;;;;;-0.66;93.36;98907.22;4918679;28;20435;-72
2020/12/05 00:54:56;;;;;;;30.97;14.30;;;;;;;-0.61;93.18;98899.50;4928388;29;20207;-73
2020/12/05 00:57:22;;;;;;;25.63;14.17;;;;;;;-0.62;93.16;98910.59;4919129;29;20632;-74
2020/12/05 00:59:48;;;;;;;31.13;15.60;;;;;;;-0.64;93.12;98907.19;4926050;29;20426;-74
2020/12/05 01:02:14;;;;;;;26.70;14.53;;;;;;;-0.57;93.13;98909.69;4923042;29;20258;-74
2020/12/05 01:04:40;;;;;;;28.63;14.80;;;;;;;-0.57;92.85;98926.75;4924948;29;20192;-74
2020/12/05 01:07:06;;;;;;;26.00;14.80;;;;;;;-0.60;92.72;98930.22;4926543;28;20777;-73
2020/12/05 01:09:32;;;;;;;27.87;15.03;;;;;;;-0.65;92.82;98921.72;4924248;29;20207;-73
2020/12/05 01:11:58;;;;;;;27.27;14.20;;;;;;;-0.64;92.94;98912.31;4924913;29;20229;-73
2020/12/05 01:14:24;;;;;;;26.13;14.20;;;;;;;-0.63;92.88;98914.03;4926020;29;20203;-73
2020/12/05 01:16:50;;;;;;;31.87;14.73;;;;;;;-0.63;92.92;98914.88;4926566;29;20202;-74
2020/12/05 01:19:17;;;;;;;28.87;15.10;;;;;;;-0.63;92.64;98927.66;4924546;29;20205;-73
2020/12/05 01:21:44;;;;;;;29.37;14.60;;;;;;;-0.65;92.68;98941.31;4926384;29;20215;-73
2020/12/05 01:24:10;;;;;;;31.53;14.27;;;;;;;-0.69;93.04;98939.66;4927050;29;20222;-73
2020/12/05 01:26:36;;;;;;;28.37;14.20;;;;;;;-0.72;93.06;98948.22;4926332;29;20302;-73
2020/12/05 01:29:02;;;;;;;28.37;14.33;;;;;;;-0.73;93.03;98950.78;4929083;28;20644;-73
2020/12/05 01:31:28;;;;;;;26.70;14.60;;;;;;;-0.71;93.21;98949.06;4927522;29;20211;-73
2020/12/05 01:33:54;;;;;;;25.40;13.30;;;;;;;-0.73;93.20;98943.13;4928380;28;20731;-74
2020/12/05 01:36:20;;;;;;;27.17;12.87;;;;;;;-0.76;93.17;98946.53;4924865;29;20219;-72
2020/12/05 01:38:46;;;;;;;30.90;14.37;;;;;;;-0.75;93.29;98944.84;4926507;29;20211;-73
2020/12/05 01:41:12;;;;;;;23.57;13.17;;;;;;;-0.70;93.30;98943.94;4922795;29;20723;-73
2020/12/05 01:43:40;;;;;;;25.57;13.30;;;;;;;-0.65;93.01;98941.31;4930545;29;20867;-72
2020/12/05 01:46:07;;;;;;;25.37;13.10;;;;;;;-0.62;92.80;98931.06;4927163;29;20211;-73
2020/12/05 01:48:33;;;;;;;23.77;13.70;;;;;;;-0.47;92.56;98930.94;4928385;29;20207;-72
2020/12/05 01:51:00;;;;;;;23.30;13.57;;;;;;;-0.47;92.24;98945.47;4922349;29;20219;-72
2020/12/05 01:53:27;;;;;;;22.53;12.60;;;;;;;-0.41;92.31;98947.97;4927808;29;20215;-74
2020/12/05 01:55:53;;;;;;;24.57;12.23;;;;;;;-0.27;91.89;98929.94;4921225;29;20235;-74
2020/12/05 01:58:19;;;;;;;25.93;13.03;;;;;;;-0.24;91.62;98923.06;4924551;29;20362;-73
2020/12/05 02:00:46;;;;;;;21.20;11.80;;;;;;;-0.17;91.64;98930.69;4926074;29;20839;-73
2020/12/05 02:03:13;;;;;;;27.13;13.67;;;;;;;-0.08;91.27;98925.47;4923946;29;20218;-73
2020/12/05 02:05:54;;;;;;;25.53;12.57;;;;;;;-0.05;91.08;98925.47;4928633;29;20203;-74
2020/12/05 02:08:28;;;;;;;25.03;12.37;;;;;;;0.00;90.82;98928.81;4921031;29;20202;-73
2020/12/05 02:10:55;;;;;;;26.10;13.67;;;;;;;0.08;90.39;98934.69;4926078;29;20269;-74
2020/12/05 02:13:26;;;;;;;22.03;12.17;;;;;;;0.13;90.13;98929.53;4920544;29;20231;-74
2020/12/05 02:15:53;;;;;;;25.87;12.97;;;;;;;0.19;89.96;98932.00;4929709;29;20240;-73
2020/12/05 02:18:20;;;;;;;23.50;13.13;;;;;;;0.23;89.61;98935.38;4921568;29;20630;-73
2020/12/05 02:20:47;;;;;;;24.03;13.00;;;;;;;0.25;89.37;98943.94;4926984;29;20195;-74
2020/12/05 02:23:15;;;;;;;26.00;12.63;;;;;;;0.31;89.24;98933.59;4925037;29;20223;-74
2020/12/05 02:25:43;;;;;;;23.40;13.17;;;;;;;0.27;89.06;98935.34;4925094;29;20230;-73
2020/12/05 02:28:10;;;;;;;25.63;13.07;;;;;;;0.28;89.16;98923.38;4921805;29;20215;-74
2020/12/05 02:30:36;;;;;;;24.70;13.57;;;;;;;0.30;88.84;98919.94;4928417;29;20343;-73
2020/12/05 02:33:03;;;;;;;24.77;12.77;;;;;;;0.28;88.81;98928.50;4925058;29;20239;-73
2020/12/05 02:35:29;;;;;;;27.43;13.17;;;;;;;0.26;89.07;98925.09;4923101;29;20519;-72
2020/12/05 02:38:05;;;;;;;23.40;12.87;;;;;;;0.28;89.10;98923.38;4922886;29;20378;-73
2020/12/05 02:40:31;;;;;;;21.30;11.93;;;;;;;0.19;88.98;98924.31;4923486;29;20203;-73
2020/12/05 02:42:57;;;;;;;23.37;12.60;;;;;;;0.14;88.96;98924.41;4928678;29;20229;-73
2020/12/05 02:45:24;;;;;;;24.00;13.07;;;;;;;0.13;89.15;98912.44;4924725;29;20568;-73
2020/12/05 02:47:50;;;;;;;25.93;12.53;;;;;;;0.12;88.86;98915.00;4931711;29;20281;-72
2020/12/05 02:50:16;;;;;;;21.00;11.83;;;;;;;0.05;89.37;98915.94;4925146;29;20577;-73
2020/12/05 02:52:42;;;;;;;24.13;12.07;;;;;;;-0.03;89.41;98921.16;4926224;28;20222;-73
2020/12/05 02:55:07;;;;;;;27.60;12.73;;;;;;;-0.04;89.28;98916.88;4921081;29;21148;-73
2020/12/05 02:57:34;;;;;;;24.53;12.00;;;;;;;-0.09;89.73;98928.88;4926455;29;20230;-73
2020/12/05 03:00:00;;;;;;;22.00;11.97;;;;;;;-0.16;89.77;98937.50;4927143;28;20204;-73
2020/12/05 03:02:26;;;;;;;24.60;11.37;;;;;;;-0.21;89.92;98937.56;4926768;29;20778;-73
2020/12/05 03:04:52;;;;;;;18.60;10.87;;;;;;;-0.18;89.91;98931.56;4927819;29;20598;-73
2020/12/05 03:07:18;;;;;;;18.47;10.97;;;;;;;-0.24;90.02;98935.88;4921622;29;20254;-73
2020/12/05 03:09:44;;;;;;;23.23;11.90;;;;;;;-0.27;89.98;98946.13;4926532;28;20210;-73
2020/12/05 03:12:10;;;;;;;22.47;10.70;;;;;;;-0.31;90.19;98930.81;4922553;29;20231;-74
2020/12/05 03:14:37;;;;;;;17.73;10.77;;;;;;;-0.36;90.58;98932.56;4927929;28;20203;-74
2020/12/05 03:17:03;;;;;;;21.37;11.23;;;;;;;-0.38;90.40;98928.31;4923047;28;20223;-73
2020/12/05 03:19:28;;;;;;;20.77;10.93;;;;;;;-0.38;90.56;98919.78;4926767;29;20418;-72
2020/12/05 03:21:54;;;;;;;19.60;10.67;;;;;;;-0.42;90.65;98918.97;4923713;28;20250;-73
2020/12/05 03:24:20;;;;;;;19.70;10.70;;;;;;;-0.42;90.81;98918.13;4930470;29;20625;-74
2020/12/05 03:26:46;;;;;;;19.70;11.23;;;;;;;-0.39;90.74;98920.63;4927536;29;20278;-73
2020/12/05 03:29:12;;;;;;;20.97;11.33;;;;;;;-0.34;90.65;98921.44;4928181;28;20738;-74
2020/12/05 03:31:47;;;;;;;17.23;10.27;;;;;;;-0.33;90.58;98937.69;4923614;29;20444;-74
2020/12/05 03:34:14;;;;;;;20.27;10.20;;;;;;;-0.34;90.75;98941.94;4928930;29;20203;-73
2020/12/05 03:36:40;;;;;;;24.20;11.53;;;;;;;-0.32;90.52;98945.31;4928958;29;20784;-73
2020/12/05 03:39:06;;;;;;;19.87;10.53;;;;;;;-0.32;90.85;98932.50;4927017;29;20203;-73
2020/12/05 03:41:32;;;;;;;20.80;10.77;;;;;;;-0.26;90.64;98923.94;4928576;29;20667;-73
2020/12/05 03:43:58;;;;;;;18.77;9.87;;;;;;;-0.20;90.43;98919.59;4925216;29;20258;-73
2020/12/05 03:46:23;;;;;;;19.23;10.00;;;;;;;-0.16;90.43;98910.16;4929616;29;20187;-73
2020/12/05 03:48:50;;;;;;;16.57;10.13;;;;;;;-0.14;90.29;98923.84;4930983;29;20281;-73
2020/12/05 03:51:16;;;;;;;16.10;9.73;;;;;;;-0.11;90.13;98922.94;4927452;29;20215;-74
2020/12/05 03:53:42;;;;;;;19.63;10.53;;;;;;;-0.09;90.27;98937.44;4925560;29;20210;-73
2020/12/05 03:56:08;;;;;;;17.53;10.00;;;;;;;-0.10;90.39;98937.47;4926733;29;22816;-73
2020/12/05 03:58:34;;;;;;;17.83;9.77;;;;;;;-0.01;90.14;98916.88;4928482;28;20201;-72
2020/12/05 04:00:59;;;;;;;18.73;10.20;;;;;;;0.03;89.72;98915.13;4923268;29;20243;-73
2020/12/05 04:03:25;;;;;;;16.03;9.93;;;;;;;0.06;89.83;98887.75;4930401;29;20577;-74
2020/12/05 04:05:52;;;;;;;17.67;10.87;;;;;;;0.10;89.79;98848.38;4925635;29;20206;-74
2020/12/05 04:08:18;;;;;;;19.37;10.57;;;;;;;0.12;89.67;98844.13;4929749;29;20323;-73
2020/12/05 04:10:44;;;;;;;17.43;10.30;;;;;;;0.14;89.85;98832.13;4923989;29;20294;-73
2020/12/05 04:13:11;;;;;;;17.77;10.13;;;;;;;0.17;89.76;98821.81;4930532;29;20774;-73
2020/12/05 04:15:37;;;;;;;19.40;9.90;;;;;;;0.17;90.00;98816.69;4927624;29;20468;-73
2020/12/05 04:18:03;;;;;;;19.17;10.60;;;;;;;0.16;90.07;98837.22;4932214;28;20281;-73
2020/12/05 04:20:29;;;;;;;17.70;9.83;;;;;;;0.13;90.32;98863.72;4923070;28;20203;-73
2020/12/05 04:22:56;;;;;;;17.23;10.00;;;;;;;0.09;90.22;98877.47;4927314;29;20215;-72
2020/12/05 04:25:22;;;;;;;17.47;10.00;;;;;;;0.05;90.39;98872.38;4931207;29;20218;-73
2020/12/05 04:27:48;;;;;;;18.90;9.77;;;;;;;0.02;90.59;98863.03;4924976;29;20190;-74
2020/12/05 04:30:14;;;;;;;18.17;10.03;;;;;;;-0.02;90.78;98863.91;4929922;29;20202;-73
2020/12/05 04:32:40;;;;;;;19.03;9.67;;;;;;;-0.06;91.08;98873.34;4928034;29;20282;-73
2020/12/05 04:35:06;;;;;;;16.43;9.40;;;;;;;-0.10;91.38;98873.41;4928685;29;20636;-72
2020/12/05 04:37:32;;;;;;;17.20;9.60;;;;;;;-0.13;91.45;98865.75;4924979;29;20281;-72
2020/12/05 04:39:58;;;;;;;18.50;9.07;;;;;;;-0.14;91.81;98861.47;4927041;28;20306;-73
2020/12/05 04:42:24;;;;;;;19.60;9.70;;;;;;;-0.13;91.78;98864.03;4927472;29;20222;-73
2020/12/05 04:44:50;;;;;;;17.97;9.17;;;;;;;-0.09;92.06;98852.91;4925680;29;20199;-74
2020/12/05 04:47:16;;;;;;;15.13;8.43;;;;;;;0.02;92.02;98849.34;4925552;29;20200;-72
2020/12/05 04:49:43;;;;;;;16.13;9.40;;;;;;;0.07;92.07;98845.00;4926395;29;20616;-73
2020/12/05 04:52:22;;;;;;;16.73;9.70;;;;;;;0.13;91.90;98838.09;4926325;29;20226;-72
2020/12/05 04:54:53;;;;;;;15.50;9.37;;;;;;;0.17;92.00;98819.25;4925727;29;20215;-74
2020/12/05 04:57:22;;;;;;;15.87;9.60;;;;;;;0.22;91.89;98826.88;4925971;28;20202;-71
2020/12/05 04:59:50;;;;;;;14.53;9.33;;;;;;;0.30;91.61;98865.22;4927434;29;20557;-72
2020/12/05 05:02:19;;;;;;;14.63;9.07;;;;;;;0.31;91.50;98883.16;4929240;29;20283;-73
2020/12/05 05:04:47;;;;;;;22.20;10.07;;;;;;;0.35;91.64;98864.34;4919597;29;20227;-72
2020/12/05 05:07:15;;;;;;;14.23;9.07;;;;;;;0.49;91.07;98833.38;4928108;29;20412;-72
2020/12/05 05:09:48;;;;;;;19.00;9.33;;;;;;;0.61;90.73;98818.69;4925131;29;20200;-72
2020/12/05 05:12:26;;;;;;;16.43;9.50;;;;;;;0.64;90.64;98844.28;4930348;28;20302;-72
2020/12/05 05:14:52;;;;;;;16.17;9.23;;;;;;;0.64;90.66;98869.94;4924910;29;20199;-72
2020/12/05 05:17:18;;;;;;;17.27;9.63;;;;;;;0.63;90.67;98876.75;4928966;29;20195;-72
2020/12/05 05:19:44;;;;;;;20.10;10.33;;;;;;;0.61;90.79;98885.38;4925466;29;20235;-74
2020/12/05 05:22:10;;;;;;;17.57;9.93;;;;;;;0.57;90.68;98884.56;4927701;29;20219;-72
2020/12/05 05:24:36;;;;;;;16.20;9.60;;;;;;;0.58;90.87;98875.97;4927361;29;20209;-74
2020/12/05 05:27:04;;;;;;;18.97;10.13;;;;;;;0.61;90.62;98863.13;4924587;29;20258;-74
2020/12/05 05:29:35;;;;;;;15.00;9.23;;;;;;;0.65;90.56;98858.78;4926011;29;20211;-72
2020/12/05 05:32:06;;;;;;;14.87;9.43;;;;;;;0.68;90.79;98869.84;4925849;28;20230;-73
2020/12/05 05:34:32;;;;;;;16.97;9.37;;;;;;;0.68;90.67;98877.56;4926549;29;20243;-74
2020/12/05 05:36:58;;;;;;;13.83;8.83;;;;;;;0.71;90.67;98874.09;4921799;28;20619;-72
2020/12/05 05:39:24;;;;;;;14.23;9.47;;;;;;;0.75;90.59;98874.03;4930585;29;20195;-72
2020/12/05 05:41:51;;;;;;;13.53;8.83;;;;;;;0.78;90.64;98898.81;4926767;28;20230;-72
2020/12/05 05:44:19;;;;;;;15.90;9.23;;;;;;;0.80;90.75;98924.44;4927652;29;20235;-73
2020/12/05 05:46:48;;;;;;;16.20;9.20;;;;;;;0.78;91.08;98934.72;4921800;29;20214;-72
2020/12/05 05:49:23;;;;;;;13.90;8.70;;;;;;;0.81;91.00;98929.56;4925917;29;20560;-72
2020/12/05 05:51:50;;;;;;;15.33;9.00;;;;;;;0.83;90.76;98926.97;4923792;29;20219;-74
2020/12/05 05:54:18;;;;;;;15.97;9.03;;;;;;;0.86;90.70;98932.03;4927239;29;20307;-72
2020/12/05 05:56:58;;;;;;;15.80;9.27;;;;;;;0.86;91.17;98935.47;4922788;29;20203;-73
2020/12/05 05:59:26;;;;;;;15.57;8.67;;;;;;;0.90;91.09;98946.56;4941861;28;20219;-72
2020/12/05 06:01:55;;;;;;;16.27;8.77;;;;;;;0.89;91.07;98952.53;4929694;29;20304;-73
2020/12/05 06:04:26;;;;;;;14.73;9.37;;;;;;;0.92;91.15;98965.34;4921880;29;20210;-72
2020/12/05 06:06:53;;;;;;;13.33;8.43;;;;;;;0.92;90.83;98970.47;4929377;29;20195;-72
2020/12/05 06:09:28;;;;;;;16.73;9.00;;;;;;;0.90;91.16;98973.06;4922388;29;20502;-72
2020/12/05 06:11:56;;;;;;;15.03;8.87;;;;;;;0.91;90.70;98987.56;4930586;29;20306;-73
2020/12/05 06:14:22;;;;;;;16.90;8.60;;;;;;;0.85;90.86;98994.53;4923583;29;20205;-72
2020/12/05 06:16:55;;;;;;;18.73;8.97;;;;;;;0.86;91.04;98997.06;4924767;29;20206;-74
2020/12/05 06:19:21;;;;;;;15.17;8.77;;;;;;;0.85;90.92;98999.66;4926403;29;20207;-73
2020/12/05 06:21:50;;;;;;;14.33;7.93;;;;;;;0.84;91.37;99003.06;4929431;29;20224;-72
2020/12/05 06:24:23;;;;;;;15.93;8.47;;;;;;;0.84;91.02;99003.91;4920999;29;20264;-73
2020/12/05 06:26:53;;;;;;;14.90;9.03;;;;;;;0.85;91.07;99010.75;4928440;29;20390;-72
2020/12/05 06:29:19;;;;;;;15.60;8.60;;;;;;;0.83;91.17;99006.53;4919241;29;20774;-73
2020/12/05 06:31:47;;;;;;;15.17;8.83;;;;;;;0.81;91.23;98995.41;4923967;29;20227;-73
2020/12/05 06:34:33;;;;;;;15.80;9.47;;;;;;;0.76;91.74;98995.47;4928050;29;20274;-73
2020/12/05 06:36:59;;;;;;;15.27;9.27;;;;;;;0.69;91.39;99002.41;4920068;29;20191;-73
2020/12/05 06:39:25;;;;;;;16.90;9.37;;;;;;;0.66;91.92;98988.75;4930829;29;20205;-72
2020/12/05 06:41:52;;;;;;;14.73;9.10;;;;;;;0.61;91.90;99000.78;4922204;29;20219;-73
2020/12/05 06:44:19;;;;;;;12.37;8.23;;;;;;;0.60;92.09;99009.34;4931517;28;20209;-72
2020/12/05 06:46:57;;;;;;;16.50;9.67;;;;;;;0.55;91.97;99009.41;4921179;29;20387;-73
2020/12/05 06:49:51;;;;;;;14.83;9.10;;;;;;;0.52;92.62;99020.53;4928413;29;20284;-73
2020/12/05 06:52:34;;;;;;;12.37;8.23;;;;;;;0.52;92.32;99027.38;4908989;28;20237;-73
2020/12/05 06:55:01;;;;;;;14.17;8.93;;;;;;;0.49;92.54;99040.22;4926880;29;20199;-72
2020/12/05 06:57:29;;;;;;;13.60;8.87;;;;;;;0.47;92.56;99047.09;4918310;29;20291;-73
2020/12/05 07:00:21;;;;;;;15.37;8.97;;;;;;;0.44;93.04;99037.75;4931838;29;20264;-72
2020/12/05 07:02:53;;;;;;;14.93;8.63;;;;;;;0.42;92.99;99036.88;4928361;28;20246;-72
2020/12/05 07:05:41;;;;;;;13.47;8.57;;;;;;;0.41;93.19;99036.91;4929855;29;20199;-73
2020/12/05 07:08:33;;;;;;;16.50;9.30;;;;;;;0.42;93.28;99039.44;4926265;29;20208;-74
2020/12/05 07:11:02;;;;;;;14.70;8.83;;;;;;;0.44;93.77;99045.44;4922375;28;20707;-72
2020/12/05 07:13:37;;;;;;;17.60;9.73;;;;;;;0.47;93.66;99050.50;4923749;29;20322;-73
2020/12/05 07:16:18;;;;;;;15.67;8.90;;;;;;;0.50;93.54;99054.78;4929809;29;20261;-72
2020/12/05 07:18:46;;;;;;;14.03;8.67;;;;;;;0.55;93.85;99051.28;4927246;29;20220;-71
2020/12/05 07:21:13;;;;;;;14.83;8.73;;;;;;;0.56;93.90;99065.81;4929950;28;20196;-73
2020/12/05 07:23:40;;;;;;;15.27;9.37;;;;;;;0.60;93.98;99068.34;4927159;29;20734;-73
2020/12/05 07:26:06;;;;;;;15.67;8.97;;;;;;;0.64;93.95;99082.84;4929102;29;20203;-72
2020/12/05 07:28:33;;;;;;;15.53;9.43;;;;;;;0.67;94.03;99081.09;4925368;29;20231;-73
2020/12/05 07:30:59;;;;;;;14.07;9.00;;;;;;;0.72;93.88;99092.16;4929314;29;22098;-73
2020/12/05 07:33:27;;;;;;;16.20;9.23;;;;;;;0.74;94.01;99104.97;4931422;28;20310;-73
2020/12/05 07:36:01;;;;;;;15.17;9.27;;;;;;;0.75;94.18;99101.53;4925419;29;20222;-74
2020/12/05 07:38:31;;;;;;;18.27;9.70;;;;;;;0.82;94.05;99104.88;4927829;29;20214;-73
2020/12/05 07:40:57;;;;;;;17.07;10.00;;;;;;;0.88;94.01;99110.81;4923385;29;20211;-73
2020/12/05 07:43:23;;;;;;;17.30;9.97;;;;;;;0.93;93.81;99103.91;4932466;28;20761;-73
2020/12/05 07:45:50;;;;;;;15.93;9.23;;;;;;;0.99;93.89;99097.00;4925077;29;20207;-74
2020/12/05 07:48:18;;;;;;;18.20;10.40;;;;;;;1.04;93.63;99103.78;4927908;29;20210;-73
2020/12/05 07:50:45;;;;;;;15.60;9.27;;;;;;;1.10;93.68;99120.81;4925662;29;20351;-72
2020/12/05 07:53:25;;;;;;;16.37;9.50;;;;;;;1.13;93.71;99121.63;4930011;28;20226;-73
2020/12/05 07:55:53;;;;;;;17.57;10.20;;;;;;;1.18;93.67;99120.72;4923331;29;20673;-73
2020/12/05 07:58:19;;;;;;;17.07;9.83;;;;;;;1.19;93.35;99137.84;4931485;29;20656;-72
2020/12/05 08:00:45;;;;;;;17.83;10.37;;;;;;;1.20;93.77;99147.25;4931051;29;20674;-73
2020/12/05 08:03:35;;;;;;;18.17;10.07;;;;;;;1.21;93.91;99162.63;4930287;29;20448;-73
2020/12/05 08:06:08;;;;;;;17.50;9.73;;;;;;;1.26;93.65;99173.69;4925450;29;20372;-73
2020/12/05 08:08:35;;;;;;;17.90;11.17;;;;;;;1.34;93.66;99181.31;4928704;29;20214;-72
2020/12/05 08:11:03;;;;;;;19.30;11.67;;;;;;;1.41;93.25;99192.38;4932408;29;20577;-73
2020/12/05 08:13:30;;;;;;;18.87;12.00;;;;;;;1.47;93.48;99198.28;4927784;29;20584;-73
2020/12/05 08:16:02;;;;;;;18.80;12.10;;;;;;;1.51;93.37;99194.81;4931355;28;20219;-73
2020/12/05 08:18:30;;;;;;;18.47;11.20;;;;;;;1.59;93.38;99206.72;4926342;29;20356;-73
2020/12/05 08:20:56;;;;;;;17.47;11.37;;;;;;;1.64;93.12;99213.50;4935893;28;20209;-73
2020/12/05 08:23:24;;;;;;;21.23;11.93;;;;;;;1.72;93.17;99210.81;4923756;29;20216;-74
2020/12/05 08:25:52;;;;;;;20.53;11.30;;;;;;;1.74;93.22;99209.06;4931692;28;20210;-73
2020/12/05 08:28:20;;;;;;;23.80;13.63;;;;;;;1.79;93.01;99209.03;4926029;29;20221;-73
2020/12/05 08:30:47;;;;;;;18.43;11.20;;;;;;;1.80;92.88;99210.72;4932575;29;20253;-72
2020/12/05 08:33:13;;;;;;;18.60;11.17;;;;;;;1.82;93.10;99219.28;4925714;29;20586;-74
2020/12/05 08:35:40;;;;;;;22.80;11.77;;;;;;;1.86;92.98;99228.63;4929842;29;20610;-73
2020/12/05 08:38:06;;;;;;;18.50;10.60;;;;;;;1.90;93.17;99230.31;4926183;29;20218;-73
2020/12/05 08:40:32;;;;;;;19.80;11.57;;;;;;;2.00;93.15;99226.72;4927122;28;20230;-73
2020/12/05 08:42:58;;;;;;;16.37;10.80;;;;;;;2.12;93.32;99227.44;4927827;29;20288;-72
2020/12/05 08:45:25;;;;;;;20.50;12.10;;;;;;;2.28;92.55;99232.31;4924973;29;20306;-73
2020/12/05 08:47:52;;;;;;;21.33;12.73;;;;;;;2.41;92.76;99225.31;4929226;28;20408;-73
2020/12/05 08:50:25;;;;;;;19.40;11.60;;;;;;;2.56;91.76;99237.06;4924787;29;20300;-73
2020/12/05 08:52:53;;;;;;;21.40;12.47;;;;;;;2.62;91.37;99246.41;4927753;29;20226;-74
2020/12/05 08:55:23;;;;;;;21.23;11.83;;;;;;;2.66;91.12;99227.50;4921962;29;20294;-73
2020/12/05 08:57:53;;;;;;;17.53;11.30;;;;;;;2.77;91.14;99215.28;4922962;29;20229;-73
2020/12/05 09:00:20;;;;;;;18.90;10.97;;;;;;;2.93;90.56;99205.56;4925922;29;20206;-73
2020/12/05 09:02:46;;;;;;;21.93;11.83;;;;;;;2.98;90.34;99195.19;4930534;29;20299;-73
2020/12/05 09:05:12;;;;;;;17.50;11.17;;;;;;;3.00;90.14;99193.44;4928686;28;20222;-73
2020/12/05 09:07:38;;;;;;;17.77;11.20;;;;;;;3.03;90.22;99232.00;4926175;29;20203;-73
2020/12/05 09:10:14;;;;;;;21.87;13.37;;;;;;;3.01;90.10;99280.13;4928768;29;20203;-73
2020/12/05 09:12:40;;;;;;;20.57;11.40;;;;;;;2.99;89.84;99318.78;4926844;29;20304;-72
2020/12/05 09:15:07;;;;;;;19.63;12.17;;;;;;;2.99;90.31;99323.91;4927268;29;20203;-73
2020/12/05 09:17:34;;;;;;;18.50;11.87;;;;;;;3.05;90.78;99333.28;4928011;28;20199;-73
2020/12/05 09:20:15;;;;;;;22.63;12.13;;;;;;;3.10;90.67;99338.34;4929623;28;20211;-73
2020/12/05 09:22:46;;;;;;;23.00;13.30;;;;;;;3.20;90.56;99345.03;4923156;29;20307;-73
2020/12/05 09:25:24;;;;;;;22.07;12.80;;;;;;;3.27;90.40;99336.31;4928602;29;20199;-72
2020/12/05 09:27:50;;;;;;;23.57;13.43;;;;;;;3.31;90.45;99340.56;4922534;29;20346;-73
2020/12/05 09:30:16;;;;;;;23.67;13.20;;;;;;;3.33;90.07;99343.97;4929697;29;20255;-73
2020/12/05 09:32:44;;;;;;;22.67;14.57;;;;;;;3.35;89.67;99349.94;4925477;29;20234;-72
2020/12/05 09:35:12;;;;;;;25.27;14.90;;;;;;;3.39;90.07;99348.16;4930301;29;20206;-72
2020/12/05 09:37:38;;;;;;;20.03;12.67;;;;;;;3.44;89.99;99369.53;4927111;28;20223;-74
2020/12/05 09:40:06;;;;;;;29.80;15.90;;;;;;;3.53;89.75;99382.25;4923878;29;20226;-73
2020/12/05 09:42:32;;;;;;;28.07;15.13;;;;;;;3.54;89.67;99383.13;4924331;29;20223;-73
2020/12/05 09:44:58;;;;;;;25.53;14.30;;;;;;;3.54;89.53;99390.88;4927306;28;20216;-74
2020/12/05 09:47:24;;;;;;;24.23;14.27;;;;;;;3.54;89.90;99385.72;4926680;29;20601;-72
2020/12/05 09:49:49;;;;;;;24.00;12.53;;;;;;;3.56;89.88;99396.84;4919312;29;20755;-73
2020/12/05 09:52:16;;;;;;;24.83;14.23;;;;;;;3.56;90.43;99410.56;4923669;29;20243;-73
2020/12/05 09:54:42;;;;;;;22.00;12.97;;;;;;;3.58;90.57;99424.28;4922293;29;20210;-73
2020/12/05 09:57:09;;;;;;;19.07;11.33;;;;;;;3.59;90.75;99438.03;4925133;29;20580;-73
2020/12/05 09:59:35;;;;;;;17.57;11.17;;;;;;;3.66;90.85;99428.44;4922864;29;20203;-74
2020/12/05 10:02:03;;;;;;;19.83;11.80;;;;;;;3.71;91.00;99426.66;4925305;29;20226;-72
2020/12/05 10:04:29;;;;;;;20.50;11.90;;;;;;;3.84;90.71;99428.16;4920165;29;20201;-73
2020/12/05 10:06:54;;;;;;;22.73;12.70;;;;;;;3.97;90.91;99423.59;4921377;28;20287;-74
2020/12/05 10:09:21;;;;;;;20.27;12.37;;;;;;;4.09;90.45;99422.53;4920118;29;20212;-73
2020/12/05 10:11:47;;;;;;;20.20;11.73;;;;;;;4.16;90.03;99427.53;4923714;28;20251;-74
2020/12/05 10:14:13;;;;;;;21.33;12.20;;;;;;;4.30;88.65;99419.53;4920786;28;20759;-73
2020/12/05 10:16:39;;;;;;;24.17;12.97;;;;;;;4.41;88.74;99428.81;4922340;29;20541;-74
2020/12/05 10:19:04;;;;;;;18.90;11.70;;;;;;;4.55;87.80;99435.38;4925718;28;20203;-73
2020/12/05 10:21:31;;;;;;;18.20;11.63;;;;;;;4.60;87.93;99448.19;4923402;28;20199;-73
2020/12/05 10:23:57;;;;;;;18.17;10.57;;;;;;;4.63;88.30;99453.31;4931487;28;20199;-74
2020/12/05 10:26:24;;;;;;;17.37;11.17;;;;;;;4.70;87.42;99454.88;4923110;29;20271;-72
2020/12/05 10:28:49;;;;;;;20.67;11.33;;;;;;;4.72;87.22;99480.69;4932531;29;20739;-73
2020/12/05 10:31:15;;;;;;;15.93;11.00;;;;;;;4.71;87.29;99492.75;4926577;29;20274;-72
2020/12/05 10:33:41;;;;;;;16.03;9.93;;;;;;;4.68;86.96;99482.47;4933826;28;20299;-74
2020/12/05 10:36:07;;;;;;;17.40;10.83;;;;;;;4.73;86.93;99469.44;4931705;28;20210;-74
2020/12/05 10:38:33;;;;;;;16.53;9.77;;;;;;;4.76;86.89;99479.72;4925274;29;20218;-74
2020/12/05 10:40:59;;;;;;;17.23;9.13;;;;;;;4.76;86.68;99479.72;4933144;29;20210;-73
2020/12/05 10:43:25;;;;;;;16.87;10.50;;;;;;;4.74;86.79;99474.59;4925951;28;20420;-73
2020/12/05 10:45:51;;;;;;;14.87;9.47;;;;;;;4.78;86.79;99477.09;4928597;28;20203;-73
2020/12/05 10:48:17;;;;;;;18.17;11.10;;;;;;;4.95;86.17;99425.94;4920078;28;20214;-74
2020/12/05 10:50:43;;;;;;;17.30;10.47;;;;;;;5.03;85.68;99425.75;4926749;29;20739;-74
2020/12/05 10:53:09;;;;;;;16.77;9.67;;;;;;;5.01;85.78;99428.38;4924895;29;20484;-73
2020/12/05 10:55:35;;;;;;;17.23;10.17;;;;;;;4.95;85.81;99432.84;4926427;29;20281;-73
2020/12/05 10:58:00;;;;;;;15.10;9.03;;;;;;;4.90;85.91;99435.53;4925089;29;20211;-72
2020/12/05 11:00:27;;;;;;;17.10;9.87;;;;;;;4.92;86.03;99457.00;4923941;29;20199;-73
2020/12/05 11:02:53;;;;;;;15.17;9.70;;;;;;;4.92;86.41;99464.75;4940188;28;20227;-73
2020/12/05 11:05:19;;;;;;;15.80;9.17;;;;;;;5.00;86.42;99500.78;4925928;29;20247;-73
2020/12/05 11:07:45;;;;;;;14.97;9.33;;;;;;;5.05;87.01;99517.88;4924866;29;20208;-73
2020/12/05 11:10:11;;;;;;;17.30;9.97;;;;;;;5.16;86.34;99516.78;4922107;29;20203;-73
2020/12/05 11:12:36;;;;;;;17.77;10.57;;;;;;;5.19;86.37;99519.28;4925952;29;20238;-73
2020/12/05 11:15:03;;;;;;;15.87;9.97;;;;;;;5.29;86.28;99532.00;4922871;29;20304;-73
2020/12/05 11:17:29;;;;;;;23.93;13.93;;;;;;;5.34;86.33;99534.47;4929418;29;20215;-73
2020/12/05 11:19:55;;;;;;;15.77;9.60;;;;;;;5.39;85.98;99524.88;4924796;28;20212;-73
2020/12/05 11:22:21;;;;;;;18.13;10.37;;;;;;;5.49;86.04;99544.47;4929618;29;20226;-73
2020/12/05 11:24:47;;;;;;;16.77;9.93;;;;;;;5.60;85.65;99535.63;4928792;29;20218;-73
2020/12/05 11:27:13;;;;;;;14.63;9.73;;;;;;;5.69;85.24;99536.25;4923708;29;20806;-72
2020/12/05 11:29:39;;;;;;;19.07;11.77;;;;;;;5.79;84.64;99536.91;4918423;29;20665;-73